createdAt,value
2022-08-02T00:00:47.435Z,100490.72
2022-08-02T00:03:16.194Z,100501.56
2022-08-02T00:05:53.736Z,100499.91
2022-08-02T00:08:24.237Z,100499.06
2022-08-02T00:10:52.804Z,100503.44
2022-08-02T00:13:21.486Z,100510.09
2022-08-02T00:15:50.068Z,100505.50
2022-08-02T00:18:19.023Z,100515.50
2022-08-02T00:20:47.795Z,100513.84
2022-08-02T00:23:16.384Z,100508.56
2022-08-02T00:25:55.419Z,100513.31
2022-08-02T00:28:28.033Z,100500.97
2022-08-02T00:30:58.333Z,100508.09
2022-08-02T00:34:26.599Z,100514.53
2022-08-02T00:36:16.183Z,100516.25
2022-08-02T00:38:46.526Z,100519.13
2022-08-02T00:41:19.204Z,100510.97
2022-08-02T00:43:49.538Z,100521.16
2022-08-02T00:46:19.190Z,100525.75
2022-08-02T00:48:48.423Z,100515.94
2022-08-02T00:51:18.505Z,100519.47
2022-08-02T00:53:47.268Z,100517.78
2022-08-02T00:56:17.302Z,100522.19
2022-08-02T00:58:46.028Z,100519.47
2022-08-02T01:01:14.662Z,100513.84
2022-08-02T01:03:45.019Z,100505.38
2022-08-02T01:06:13.757Z,100523.53
2022-08-02T01:08:43.821Z,100512.50
2022-08-02T01:11:12.937Z,100521.66
2022-08-02T01:13:43.354Z,100519.13
2022-08-02T01:16:17.352Z,100531.69
2022-08-02T01:18:49.350Z,100534.72
2022-08-02T01:21:40.329Z,100542.03
2022-08-02T01:24:26.117Z,100537.81
2022-08-02T01:27:04.181Z,100557.66
2022-08-02T01:29:39.091Z,100549.50
2022-08-02T01:32:14.392Z,100560.34
2022-08-02T01:34:48.554Z,100561.19
2022-08-02T01:37:26.324Z,100553.06
2022-08-02T01:39:59.173Z,100554.78
2022-08-02T01:42:30.148Z,100546.44
2022-08-02T01:45:03.109Z,100557.13
2022-08-02T01:47:36.149Z,100565.09
2022-08-02T01:50:08.865Z,100563.06
2022-08-02T01:52:40.544Z,100562.84
2022-08-02T01:55:35.102Z,100565.56
2022-08-02T01:58:19.186Z,100565.88
2022-08-02T02:00:51.140Z,100566.09
2022-08-02T02:03:23.533Z,100566.91
2022-08-02T02:05:55.278Z,100569.63
2022-08-02T02:08:27.863Z,100570.47
2022-08-02T02:12:11.716Z,100559.44
2022-08-02T02:13:48.972Z,100568.59
2022-08-02T02:16:20.878Z,100574.03
2022-08-02T02:18:53.086Z,100571.50
2022-08-02T02:21:22.299Z,100572.34
2022-08-02T02:23:51.158Z,100570.31
2022-08-02T02:26:31.072Z,100562.81
2022-08-02T02:29:03.990Z,100561.81
2022-08-02T02:31:38.309Z,100564.50
2022-08-02T02:34:12.269Z,100560.59
2022-08-02T02:36:43.154Z,100561.06
2022-08-02T02:39:13.931Z,100563.25
2022-08-02T02:41:44.934Z,100564.22
2022-08-02T02:44:17.859Z,100563.34
2022-08-02T02:46:52.006Z,100570.09
2022-08-02T02:49:21.862Z,100564.31
2022-08-02T02:51:51.933Z,100568.91
2022-08-02T02:54:32.437Z,100573.97
2022-08-02T02:57:07.534Z,100575.84
2022-08-02T02:59:49.438Z,100581.94
2022-08-02T03:02:21.503Z,100579.91
2022-08-02T03:04:56.992Z,100578.56
2022-08-02T03:07:27.780Z,100577.53
2022-08-02T03:09:56.677Z,100573.59
2022-08-02T03:12:31.349Z,100581.59
2022-08-02T03:15:02.169Z,100581.09
2022-08-02T03:17:44.500Z,100577.53
2022-08-02T03:20:16.365Z,100577.34
2022-08-02T03:22:46.564Z,100584.72
2022-08-02T03:25:16.848Z,100574.34
2022-08-02T03:27:46.496Z,100583.16
2022-08-02T03:30:16.780Z,100585.69
2022-08-02T03:32:49.006Z,100583.81
2022-08-02T03:35:24.090Z,100581.94
2022-08-02T03:37:55.701Z,100587.53
2022-08-02T03:40:26.612Z,100594.50
2022-08-02T03:42:55.283Z,100595.69
2022-08-02T03:45:24.844Z,100598.63
2022-08-02T03:47:58.721Z,100600.47
2022-08-02T03:50:29.025Z,100594.03
2022-08-02T03:52:59.082Z,100595.03
2022-08-02T03:55:28.142Z,100593.16
2022-08-02T03:57:57.041Z,100603.66
2022-08-02T04:00:25.885Z,100599.84
2022-08-02T04:02:56.205Z,100595.25
2022-08-02T04:05:25.002Z,100597.84
2022-08-02T04:08:33.622Z,100601.47
2022-08-02T04:10:56.423Z,100612.66
2022-08-02T04:13:31.655Z,100606.47
2022-08-02T04:16:10.693Z,100612.22
2022-08-02T04:18:48.183Z,100617.19
2022-08-02T04:21:18.941Z,100618.03
2022-08-02T04:23:50.507Z,100622.09
2022-08-02T04:26:26.916Z,100622.75
2022-08-02T04:28:58.947Z,100628.66
2022-08-02T04:31:28.442Z,100624.56
2022-08-02T04:33:58.986Z,100628.09
2022-08-02T04:36:31.245Z,100641.63
2022-08-02T04:39:00.683Z,100635.97
2022-08-02T04:41:44.794Z,100638.44
2022-08-02T04:44:14.032Z,100642.31
2022-08-02T04:46:43.646Z,100638.63
2022-08-02T04:49:14.548Z,100642.38
2022-08-02T04:51:44.984Z,100645.09
2022-08-02T04:54:13.950Z,100652.06
2022-08-02T04:56:42.944Z,100649.50
2022-08-02T04:59:12.630Z,100653.91
2022-08-02T05:01:42.660Z,100653.56
2022-08-02T05:04:11.721Z,100652.88
2022-08-02T05:06:41.906Z,100654.94
2022-08-02T05:09:10.618Z,100662.63
2022-08-02T05:11:39.441Z,100652.75
2022-08-02T05:14:08.437Z,100650.34
2022-08-02T05:16:37.526Z,100659.63
2022-08-02T05:19:06.349Z,100666.81
2022-08-02T05:21:35.087Z,100668.63
2022-08-02T05:24:05.542Z,100675.72
2022-08-02T05:26:34.377Z,100677.03
2022-08-02T05:29:03.982Z,100670.00
2022-08-02T05:31:32.739Z,100673.72
2022-08-02T05:34:01.503Z,100678.44
2022-08-02T05:36:30.384Z,100678.72
2022-08-02T05:38:59.585Z,100681.69
2022-08-02T05:41:35.427Z,100683.28
2022-08-02T05:44:04.551Z,100684.25
2022-08-02T05:46:33.298Z,100689.19
2022-08-02T05:49:03.641Z,100693.69
2022-08-02T05:51:37.942Z,100694.75
2022-08-02T05:54:17.660Z,100694.38
2022-08-02T05:56:57.678Z,100704.69
2022-08-02T05:59:35.512Z,100707.25
2022-08-02T06:02:11.648Z,100696.06
2022-08-02T06:04:54.903Z,100710.50
2022-08-02T06:07:25.745Z,100706.28
2022-08-02T06:09:54.701Z,100711.44
2022-08-02T06:12:30.819Z,100705.44
2022-08-02T06:15:00.829Z,100709.94
2022-08-02T06:17:30.941Z,100713.97
2022-08-02T06:20:01.846Z,100718.66
2022-08-02T06:22:37.126Z,100715.94
2022-08-02T06:25:48.549Z,100720.88
2022-08-02T06:27:58.593Z,100721.00
2022-08-02T06:30:28.009Z,100727.28
2022-08-02T06:32:57.243Z,100725.31
2022-08-02T06:35:31.550Z,100723.53
2022-08-02T06:38:02.404Z,100723.03
2022-08-02T06:40:32.533Z,100732.78
2022-08-02T06:43:18.616Z,100736.31
2022-08-02T06:45:47.404Z,100737.81
2022-08-02T06:48:16.285Z,100727.59
2022-08-02T06:50:45.334Z,100723.31
2022-08-02T06:53:14.331Z,100723.31
2022-08-02T06:55:44.497Z,100730.47
2022-08-02T06:58:15.783Z,100725.97
2022-08-02T07:00:44.812Z,100726.31
2022-08-02T07:03:13.604Z,100729.38
2022-08-02T07:05:43.952Z,100728.38
2022-08-02T07:08:12.827Z,100730.44
2022-08-02T07:10:41.552Z,100735.66
2022-08-02T07:13:11.160Z,100736.06
2022-08-02T07:15:49.086Z,100737.59
2022-08-02T07:18:18.386Z,100734.59
2022-08-02T07:20:47.135Z,100734.66
2022-08-02T07:23:15.863Z,100735.75
2022-08-02T07:26:01.830Z,100748.16
2022-08-02T07:28:33.032Z,100737.06
2022-08-02T07:31:03.319Z,100743.00
2022-08-02T07:33:38.666Z,100739.44
2022-08-02T07:36:16.657Z,100749.13
2022-08-02T07:38:45.744Z,100746.75
2022-08-02T07:41:15.547Z,100744.44
2022-08-02T07:43:44.379Z,100745.88
2022-08-02T07:46:14.528Z,100740.53
2022-08-02T07:48:43.330Z,100749.06
2022-08-02T07:51:16.929Z,100749.78
2022-08-02T07:53:49.860Z,100746.53
2022-08-02T07:56:20.436Z,100739.91
2022-08-02T07:58:49.917Z,100746.44
2022-08-02T08:01:22.063Z,100752.47
2022-08-02T08:03:50.802Z,100755.00
2022-08-02T08:06:19.500Z,100760.31
2022-08-02T08:08:58.158Z,100755.25
2022-08-02T08:11:26.957Z,100759.41
2022-08-02T08:13:55.841Z,100761.81
2022-08-02T08:16:26.666Z,100758.94
2022-08-02T08:18:55.443Z,100754.31
2022-08-02T08:21:24.168Z,100760.78
2022-08-02T08:23:52.986Z,100776.84
2022-08-02T08:26:21.660Z,100771.47
2022-08-02T08:28:50.478Z,100777.28
2022-08-02T08:31:19.227Z,100778.66
2022-08-02T08:33:49.383Z,100773.72
2022-08-02T08:36:18.179Z,100776.03
2022-08-02T08:38:47.041Z,100782.03
2022-08-02T08:41:18.060Z,100787.03
2022-08-02T08:43:52.904Z,100794.53
2022-08-02T08:46:29.087Z,100790.31
2022-08-02T08:49:04.563Z,100790.91
2022-08-02T08:51:38.677Z,100796.59
2022-08-02T08:54:11.311Z,100796.63
2022-08-02T08:56:41.328Z,100798.44
2022-08-02T08:59:10.040Z,100801.59
2022-08-02T09:01:49.944Z,100791.72
2022-08-02T09:04:21.756Z,100802.88
2022-08-02T09:06:50.414Z,100807.81
2022-08-02T09:09:19.095Z,100799.94
2022-08-02T09:11:47.857Z,100809.22
2022-08-02T09:14:29.000Z,100805.44
2022-08-02T09:17:08.831Z,100804.56
2022-08-02T09:19:39.173Z,100816.41
2022-08-02T09:22:16.687Z,100820.84
2022-08-02T09:24:46.629Z,100816.03
2022-08-02T09:27:17.448Z,100824.88
2022-08-02T09:30:11.471Z,100820.03
2022-08-02T09:32:46.922Z,100809.34
2022-08-02T09:36:05.364Z,100819.06
2022-08-02T09:38:22.889Z,100811.88
2022-08-02T09:40:55.104Z,100820.72
2022-08-02T09:43:36.577Z,100825.59
2022-08-02T09:46:15.418Z,100817.16
2022-08-02T09:48:52.957Z,100819.06
2022-08-02T09:51:28.141Z,100804.75
2022-08-02T09:54:08.330Z,100810.19
2022-08-02T09:56:46.179Z,100812.72
2022-08-02T09:59:15.784Z,100816.03
2022-08-02T10:01:51.060Z,100808.91
2022-08-02T10:04:24.788Z,100821.38
2022-08-02T10:06:55.980Z,100819.91
2022-08-02T10:09:24.764Z,100820.72
2022-08-02T10:11:54.104Z,100820.28
2022-08-02T10:14:23.690Z,100810.16
2022-08-02T10:16:55.562Z,100813.31
2022-08-02T10:20:00.362Z,100808.84
2022-08-02T10:22:19.685Z,100812.19
2022-08-02T10:24:49.504Z,100809.44
2022-08-02T10:27:20.734Z,100812.34
2022-08-02T10:29:54.918Z,100821.91
2022-08-02T10:32:31.486Z,100827.03
2022-08-02T10:35:21.759Z,100820.69
2022-08-02T10:37:56.364Z,100833.69
2022-08-02T10:40:27.151Z,100829.00
2022-08-02T10:43:01.039Z,100829.94
2022-08-02T10:45:30.723Z,100842.44
2022-08-02T10:48:06.403Z,100836.22
2022-08-02T10:50:54.264Z,100832.22
2022-08-02T10:53:29.826Z,100822.59
2022-08-02T10:56:01.981Z,100828.09
2022-08-02T10:58:33.048Z,100831.72
2022-08-02T11:01:06.463Z,100828.50
2022-08-02T11:03:40.229Z,100823.66
2022-08-02T11:06:25.446Z,100823.81
2022-08-02T11:09:33.622Z,100827.59
2022-08-02T11:12:04.784Z,100842.28
2022-08-02T11:14:36.160Z,100834.03
2022-08-02T11:17:16.615Z,100834.53
2022-08-02T11:20:18.241Z,100835.13
2022-08-02T11:22:48.505Z,100828.28
2022-08-02T11:26:02.166Z,100843.72
2022-08-02T11:28:25.835Z,100845.94
2022-08-02T11:31:03.581Z,100843.00
2022-08-02T11:33:34.385Z,100852.84
2022-08-02T11:36:05.570Z,100853.94
2022-08-02T11:38:34.821Z,100852.63
2022-08-02T11:41:06.125Z,100850.44
2022-08-02T11:43:39.728Z,100860.56
2022-08-02T11:46:14.866Z,100864.50
2022-08-02T11:48:45.525Z,100857.34
2022-08-02T11:51:14.866Z,100857.78
2022-08-02T11:53:46.188Z,100846.41
2022-08-02T11:56:24.845Z,100854.59
2022-08-02T11:59:08.673Z,100862.19
2022-08-02T12:01:45.786Z,100866.66
2022-08-02T12:04:22.683Z,100873.59
2022-08-02T12:06:57.543Z,100877.69
2022-08-02T12:09:28.148Z,100882.13
2022-08-02T12:11:59.887Z,100876.97
2022-08-02T12:14:30.550Z,100881.22
2022-08-02T12:17:17.193Z,100884.81
2022-08-02T12:19:48.202Z,100881.81
2022-08-02T12:22:19.061Z,100880.59
2022-08-02T12:24:50.048Z,100889.66
2022-08-02T12:27:37.559Z,100880.19
2022-08-02T12:30:09.667Z,100881.16
2022-08-02T12:32:38.961Z,100884.56
2022-08-02T12:35:13.046Z,100882.75
2022-08-02T12:37:43.780Z,100880.44
2022-08-02T12:40:26.105Z,100880.84
2022-08-02T12:42:58.893Z,100878.94
2022-08-02T12:45:40.830Z,100883.16
2022-08-02T12:48:10.341Z,100888.22
2022-08-02T12:50:39.866Z,100886.28
2022-08-02T12:53:11.254Z,100885.69
2022-08-02T12:56:00.026Z,100889.03
2022-08-02T12:58:48.022Z,100894.31
2022-08-02T13:01:23.092Z,100888.63
2022-08-02T13:04:08.960Z,100888.22
2022-08-02T13:06:44.490Z,100884.41
2022-08-02T13:09:16.604Z,100888.22
2022-08-02T13:11:45.863Z,100886.13
2022-08-02T13:14:16.567Z,100886.53
2022-08-02T13:16:47.683Z,100888.63
2022-08-02T13:19:16.782Z,100891.56
2022-08-02T13:22:02.437Z,100886.72
2022-08-02T13:24:40.098Z,100883.28
2022-08-02T13:27:22.845Z,100892.66
2022-08-02T13:29:53.881Z,100880.63
2022-08-02T13:32:22.982Z,100888.00
2022-08-02T13:34:51.923Z,100879.56
2022-08-02T13:37:20.775Z,100884.22
2022-08-02T13:40:11.956Z,100880.63
2022-08-02T13:42:38.628Z,100888.41
2022-08-02T13:45:12.474Z,100875.34
2022-08-02T13:48:03.279Z,100885.91
2022-08-02T13:50:33.559Z,100882.75
2022-08-02T13:53:02.316Z,100889.06
2022-08-02T13:55:31.227Z,100890.75
2022-08-02T13:58:00.986Z,100888.63
2022-08-02T14:00:35.188Z,100890.31
2022-08-02T14:03:07.128Z,100886.75
2022-08-02T14:05:48.265Z,100884.00
2022-08-02T14:08:18.891Z,100892.66
2022-08-02T14:10:48.528Z,100903.19
2022-08-02T14:13:17.390Z,100905.13
2022-08-02T14:15:47.887Z,100894.13
2022-08-02T14:18:16.823Z,100891.81
2022-08-02T14:20:46.359Z,100892.00
2022-08-02T14:23:15.716Z,100890.75
2022-08-02T14:25:44.304Z,100884.00
2022-08-02T14:28:12.982Z,100883.78
2022-08-02T14:30:41.739Z,100880.66
2022-08-02T14:33:12.003Z,100881.03
2022-08-02T14:35:40.889Z,100883.97
2022-08-02T14:38:09.576Z,100883.34
2022-08-02T14:40:38.308Z,100889.28
2022-08-02T14:43:08.280Z,100886.13
2022-08-02T14:45:40.855Z,100884.00
2022-08-02T14:48:13.367Z,100889.03
2022-08-02T14:50:42.053Z,100872.09
2022-08-02T14:53:12.419Z,100874.59
2022-08-02T14:55:43.787Z,100881.66
2022-08-02T14:58:12.409Z,100877.25
2022-08-02T15:00:42.005Z,100884.84
2022-08-02T15:03:14.251Z,100882.31
2022-08-02T15:05:43.077Z,100886.75
2022-08-02T15:08:12.030Z,100886.31
2022-08-02T15:10:46.985Z,100884.84
2022-08-02T15:13:15.681Z,100892.88
2022-08-02T15:15:44.423Z,100898.56
2022-08-02T15:18:15.669Z,100901.91
2022-08-02T15:20:56.220Z,100893.94
2022-08-02T15:26:07.086Z,100899.38
2022-08-02T15:28:35.866Z,100892.00
2022-08-02T15:31:04.636Z,100902.88
2022-08-02T15:33:34.920Z,100906.75
2022-08-02T15:36:03.585Z,100900.00
2022-08-02T15:38:32.881Z,100894.75
2022-08-02T15:41:01.953Z,100894.13
2022-08-02T15:43:30.565Z,100901.94
2022-08-02T15:45:59.579Z,100892.66
2022-08-02T15:48:28.470Z,100889.50
2022-08-02T15:50:58.889Z,100898.38
2022-08-02T15:53:27.751Z,100901.25
2022-08-02T15:56:04.482Z,100908.22
2022-08-02T15:58:44.512Z,100907.19
2022-08-02T16:01:13.690Z,100907.63
2022-08-02T16:03:42.444Z,100901.31
2022-08-02T16:06:12.809Z,100907.19
2022-08-02T16:08:53.227Z,100916.09
2022-08-02T16:11:24.144Z,100914.38
2022-08-02T16:13:54.781Z,100905.53
2022-08-02T16:16:24.521Z,100909.31
2022-08-02T16:18:53.413Z,100920.91
2022-08-02T16:21:25.018Z,100912.69
2022-08-02T16:24:02.739Z,100916.94
2022-08-02T16:26:34.424Z,100918.81
2022-08-02T16:29:05.221Z,100913.91
2022-08-02T16:31:34.944Z,100920.88
2022-08-02T16:34:05.307Z,100917.16
2022-08-02T16:36:35.441Z,100913.31
2022-08-02T16:39:04.383Z,100924.06
2022-08-02T16:41:51.167Z,100916.88
2022-08-02T16:44:27.671Z,100925.13
2022-08-02T16:47:01.147Z,100916.50
2022-08-02T16:50:04.710Z,100907.94
2022-08-02T16:52:21.240Z,100911.03
2022-08-02T16:54:50.351Z,100916.94
2022-08-02T16:57:19.887Z,100918.63
2022-08-02T16:59:58.318Z,100916.31
2022-08-02T17:05:17.667Z,100920.41
2022-08-02T17:08:06.460Z,100922.91
2022-08-02T17:10:37.759Z,100918.66
2022-08-02T17:13:11.516Z,100922.69
2022-08-02T17:16:16.254Z,100924.66
2022-08-02T17:18:31.073Z,100922.38
2022-08-02T17:21:02.188Z,100931.75
2022-08-02T17:23:47.041Z,100923.97
2022-08-02T17:26:21.546Z,100932.94
2022-08-02T17:29:16.370Z,100936.28
2022-08-02T17:31:46.526Z,100934.78
2022-08-02T17:34:31.725Z,100938.47
2022-08-02T17:37:00.504Z,100934.97
2022-08-02T17:39:34.234Z,100937.72
2022-08-02T17:42:04.672Z,100947.00
2022-08-02T17:44:37.153Z,100947.31
2022-08-02T17:47:11.630Z,100943.00
2022-08-02T17:49:44.170Z,100947.91
2022-08-02T17:52:52.174Z,100945.13
2022-08-02T17:55:08.019Z,100956.22
2022-08-02T17:57:56.036Z,100953.09
2022-08-02T18:00:26.961Z,100950.47
2022-08-02T18:02:56.044Z,100952.16
2022-08-02T18:05:39.756Z,100951.50
2022-08-02T18:08:15.344Z,100955.00
2022-08-02T18:10:49.006Z,100951.41
2022-08-02T18:13:17.708Z,100956.06
2022-08-02T18:15:46.322Z,100960.50
2022-08-02T18:18:19.191Z,100960.84
2022-08-02T18:20:58.300Z,100961.63
2022-08-02T18:23:27.387Z,100963.34
2022-08-02T18:25:58.240Z,100971.09
2022-08-02T18:28:26.964Z,100969.13
2022-08-02T18:30:55.923Z,100968.97
2022-08-02T18:33:57.308Z,100972.16
2022-08-02T18:36:24.596Z,100978.47
2022-08-02T18:38:53.795Z,100973.88
2022-08-02T18:41:24.788Z,100980.53
2022-08-02T18:43:53.451Z,100972.56
2022-08-02T18:46:22.065Z,100975.53
2022-08-02T18:48:50.950Z,100983.13
2022-08-02T18:51:19.974Z,100987.56
2022-08-02T18:53:51.476Z,100992.25
2022-08-02T18:56:24.503Z,100980.94
2022-08-02T18:58:56.157Z,100989.06
2022-08-02T19:01:33.577Z,100989.03
2022-08-02T19:04:05.569Z,100988.22
2022-08-02T19:06:37.694Z,100987.38
2022-08-02T19:09:13.331Z,100985.16
2022-08-02T19:11:47.327Z,100984.06
2022-08-02T19:14:24.397Z,100981.47
2022-08-02T19:16:58.274Z,100990.84
2022-08-02T19:19:29.024Z,100988.38
2022-08-02T19:22:17.808Z,100984.31
2022-08-02T19:24:52.021Z,100989.91
2022-08-02T19:27:26.077Z,100994.09
2022-08-02T19:30:03.220Z,100996.13
2022-08-02T19:32:41.591Z,101007.03
2022-08-02T19:35:30.384Z,101000.72
2022-08-02T19:38:09.014Z,101012.31
2022-08-02T19:40:39.971Z,101006.53
2022-08-02T19:44:25.147Z,100996.31
2022-08-02T19:45:59.494Z,101004.19
2022-08-02T19:48:29.047Z,101012.47
2022-08-02T19:51:01.194Z,101002.63
2022-08-02T19:53:47.777Z,101004.94
2022-08-02T19:56:20.352Z,101006.59
2022-08-02T19:58:51.556Z,101005.56
2022-08-02T20:01:28.094Z,101003.06
2022-08-02T20:04:06.723Z,101000.00
2022-08-02T20:06:35.304Z,101008.25
2022-08-02T20:09:04.736Z,101003.31
2022-08-02T20:11:34.992Z,101003.00
2022-08-02T20:14:05.715Z,101002.94
2022-08-02T20:16:36.959Z,100999.38
2022-08-02T20:19:08.599Z,100998.31
2022-08-02T20:21:43.536Z,100995.03
2022-08-02T20:24:15.119Z,100993.41
2022-08-02T20:26:47.898Z,100998.31
2022-08-02T20:29:45.202Z,100994.34
2022-08-02T20:32:08.544Z,100988.63
2022-08-02T20:34:37.398Z,100991.53
2022-08-02T20:37:59.926Z,100997.00
2022-08-02T20:39:55.318Z,100986.84
2022-08-02T20:42:24.733Z,100985.13
2022-08-02T20:44:55.483Z,100991.75
2022-08-02T20:47:27.925Z,100987.88
2022-08-02T20:50:31.429Z,101003.78
2022-08-02T20:53:04.091Z,100991.09
2022-08-02T20:55:33.359Z,100998.22
2022-08-02T20:58:02.929Z,101002.38
2022-08-02T21:00:32.261Z,101003.69
2022-08-02T21:03:03.005Z,100998.50
2022-08-02T21:05:43.721Z,100999.81
2022-08-02T21:08:22.617Z,101003.09
2022-08-02T21:10:55.282Z,101008.56
2022-08-02T21:13:26.175Z,101007.84
2022-08-02T21:15:57.368Z,101010.56
2022-08-02T21:18:38.704Z,101011.19
2022-08-02T21:21:10.771Z,101014.13
2022-08-02T21:23:48.337Z,101025.31
2022-08-02T21:26:19.620Z,101025.69
2022-08-02T21:28:54.508Z,101022.00
2022-08-02T21:31:23.763Z,101028.44
2022-08-02T21:34:00.881Z,101038.09
2022-08-02T21:36:32.974Z,101025.41
2022-08-02T21:39:04.538Z,101025.31
2022-08-02T21:41:46.093Z,101029.53
2022-08-02T21:44:16.736Z,101025.13
2022-08-02T21:46:49.515Z,101029.31
2022-08-02T21:49:20.749Z,101039.84
2022-08-02T21:51:50.421Z,101029.91
2022-08-02T21:54:21.337Z,101029.34
2022-08-02T21:56:52.209Z,101037.59
2022-08-02T21:59:25.622Z,101039.66
2022-08-02T22:01:56.712Z,101040.63
2022-08-02T22:04:27.389Z,101039.06
2022-08-02T22:06:56.046Z,101042.69
2022-08-02T22:09:42.306Z,101047.41
2022-08-02T22:12:17.917Z,101046.63
2022-08-02T22:14:55.053Z,101053.53
2022-08-02T22:17:51.192Z,101051.13
2022-08-02T22:20:18.455Z,101046.66
2022-08-02T22:22:50.325Z,101051.19
2022-08-02T22:25:31.038Z,101045.81
2022-08-02T22:28:35.508Z,101047.50
2022-08-02T22:30:56.850Z,101052.25
2022-08-02T22:34:00.698Z,101054.22
2022-08-02T22:36:32.339Z,101063.31
2022-08-02T22:39:01.957Z,101057.19
2022-08-02T22:42:02.398Z,101057.69
2022-08-02T22:44:22.039Z,101059.03
2022-08-02T22:46:50.662Z,101059.56
2022-08-02T22:49:38.997Z,101058.38
2022-08-02T22:52:10.610Z,101051.31
2022-08-02T22:54:39.815Z,101050.81
2022-08-02T22:57:11.353Z,101056.56
2022-08-02T22:58:36.282Z,100915.22
2022-08-02T22:59:41.434Z,101064.38
2022-08-02T23:02:10.967Z,101057.09
2022-08-02T23:04:39.787Z,101059.66
2022-08-02T23:07:09.900Z,101053.97
2022-08-02T23:09:38.960Z,101049.19
2022-08-02T23:12:07.992Z,101059.09
2022-08-02T23:14:36.862Z,101050.91
2022-08-02T23:17:22.700Z,101057.72
2022-08-02T23:19:54.420Z,101053.66
2022-08-02T23:22:29.732Z,101050.38
2022-08-02T23:25:02.026Z,101044.41
2022-08-02T23:27:31.212Z,101055.94
2022-08-02T23:30:00.523Z,101052.88
2022-08-02T23:32:29.713Z,101052.00
2022-08-02T23:34:59.560Z,101052.13
2022-08-02T23:37:57.743Z,101056.94
2022-08-02T23:40:38.924Z,101053.59
2022-08-02T23:43:13.892Z,101071.09
2022-08-02T23:45:44.307Z,101067.22
2022-08-02T23:48:13.065Z,101071.16
2022-08-02T23:50:41.784Z,101076.75
2022-08-02T23:53:11.917Z,101084.34
2022-08-02T23:55:40.669Z,101076.69
2022-08-02T23:58:09.322Z,101069.78
